Terminal Aerodrome Forecast
Issued by NWS Glasgow, MT

Home | Current Version | Previous Version | Text Only | Print | Product List | Glossary On
Versions: 1 2 3 4 5 6 7 8 9 10 11 12 13 14 15
000
FTUS45 KGGW 221135
TAFGGW
TAF
KGGW 221135Z 2212/2312 10008KT P6SM BKN120 WS020/28045KT
     FM221800 30011KT P6SM SCT050
     FM230000 VRB04KT P6SM SCT045
     FM230500 VRB03KT P6SM BKN015 WS020/28030KT
     FM230800 VRB03KT 4SM BR BKN015 WS020/28035KT=

USA.gov is the U.S. government's official web portal to all federal, state and local government web resources and services.